sensor_id;sensor_type;location;lat;lon;timestamp;temperature;humidity
66831;DHT22;53739;44.224;22.528;2023-01-08T00:00:49;26.30;2201.60
66831;DHT22;53739;44.224;22.528;2023-01-08T00:03:14;26.30;2201.60
66831;DHT22;53739;44.224;22.528;2023-01-08T00:05:41;26.10;1868.80
66831;DHT22;53739;44.224;22.528;2023-01-08T00:08:09;25.90;2201.60
66831;DHT22;53739;44.224;22.528;2023-01-08T00:10:36;26.00;2201.60
66831;DHT22;53739;44.224;22.528;2023-01-08T00:13:02;26.00;2201.60
66831;DHT22;53739;44.224;22.528;2023-01-08T00:15:28;26.00;2201.60
66831;DHT22;53739;44.224;22.528;2023-01-08T00:17:55;26.10;1843.20
66831;DHT22;53739;44.224;22.528;2023-01-08T00:20:21;26.10;2201.60
66831;DHT22;53739;44.224;22.528;2023-01-08T00:22:48;26.10;2201.60
66831;DHT22;53739;44.224;22.528;2023-01-08T00:25:14;26.10;2201.60
66831;DHT22;53739;44.224;22.528;2023-01-08T00:27:40;26.00;2201.60
66831;DHT22;53739;44.224;22.528;2023-01-08T00:30:06;26.10;2201.60
66831;DHT22;53739;44.224;22.528;2023-01-08T00:32:32;26.10;2201.60
66831;DHT22;53739;44.224;22.528;2023-01-08T00:34:58;26.20;2201.60
66831;DHT22;53739;44.224;22.528;2023-01-08T00:37:23;26.20;2201.60
66831;DHT22;53739;44.224;22.528;2023-01-08T00:39:49;26.30;2201.60
66831;DHT22;53739;44.224;22.528;2023-01-08T00:42:15;26.40;2201.60
66831;DHT22;53739;44.224;22.528;2023-01-08T00:44:40;26.40;2201.60
66831;DHT22;53739;44.224;22.528;2023-01-08T00:47:06;26.40;2201.60
66831;DHT22;53739;44.224;22.528;2023-01-08T00:49:32;26.50;2201.60
66831;DHT22;53739;44.224;22.528;2023-01-08T00:51:57;26.40;2201.60
66831;DHT22;53739;44.224;22.528;2023-01-08T00:54:23;26.30;2201.60
66831;DHT22;53739;44.224;22.528;2023-01-08T00:56:49;26.40;2201.60
66831;DHT22;53739;44.224;22.528;2023-01-08T00:59:15;26.40;2201.60
66831;DHT22;53739;44.224;22.528;2023-01-08T01:01:40;26.50;2201.60
66831;DHT22;53739;44.224;22.528;2023-01-08T01:04:06;26.50;2201.60
66831;DHT22;53739;44.224;22.528;2023-01-08T01:06:32;26.40;2201.60
66831;DHT22;53739;44.224;22.528;2023-01-08T01:08:58;26.30;2201.60
66831;DHT22;53739;44.224;22.528;2023-01-08T01:11:25;26.20;2201.60
66831;DHT22;53739;44.224;22.528;2023-01-08T01:13:53;26.20;2201.60
66831;DHT22;53739;44.224;22.528;2023-01-08T01:16:19;26.20;2201.60
66831;DHT22;53739;44.224;22.528;2023-01-08T01:18:45;26.20;2201.60
66831;DHT22;53739;44.224;22.528;2023-01-08T01:21:32;26.20;2201.60
66831;DHT22;53739;44.224;22.528;2023-01-08T01:23:59;26.30;2201.60
66831;DHT22;53739;44.224;22.528;2023-01-08T01:26:26;26.20;2201.60
66831;DHT22;53739;44.224;22.528;2023-01-08T01:28:54;26.10;2201.60
66831;DHT22;53739;44.224;22.528;2023-01-08T01:31:21;26.10;2201.60
66831;DHT22;53739;44.224;22.528;2023-01-08T01:33:47;26.20;2048.00
66831;DHT22;53739;44.224;22.528;2023-01-08T01:36:14;26.20;1075.20
66831;DHT22;53739;44.224;22.528;2023-01-08T01:38:44;26.10;2201.60
66831;DHT22;53739;44.224;22.528;2023-01-08T01:41:28;25.80;2201.60
66831;DHT22;53739;44.224;22.528;2023-01-08T01:43:56;25.90;1817.60
66831;DHT22;53739;44.224;22.528;2023-01-08T01:48:57;26.00;2201.60
66831;DHT22;53739;44.224;22.528;2023-01-08T01:51:30;26.00;2201.60
66831;DHT22;53739;44.224;22.528;2023-01-08T01:53:58;25.90;2201.60
66831;DHT22;53739;44.224;22.528;2023-01-08T01:56:26;26.00;2201.60
66831;DHT22;53739;44.224;22.528;2023-01-08T01:58:52;26.00;2201.60
66831;DHT22;53739;44.224;22.528;2023-01-08T02:01:18;26.00;2201.60
66831;DHT22;53739;44.224;22.528;2023-01-08T02:03:44;25.70;2201.60
66831;DHT22;53739;44.224;22.528;2023-01-08T02:09:42;25.60;2201.60
66831;DHT22;53739;44.224;22.528;2023-01-08T02:12:18;0.90;2099.20
66831;DHT22;53739;44.224;22.528;2023-01-08T02:15:10;0.80;2201.60
66831;DHT22;53739;44.224;22.528;2023-01-08T02:20:35;0.80;2201.60
66831;DHT22;53739;44.224;22.528;2023-01-08T02:23:48;0.80;2201.60
66831;DHT22;53739;44.224;22.528;2023-01-08T02:26:30;0.80;1920.00
66831;DHT22;53739;44.224;22.528;2023-01-08T02:29:08;0.90;2201.60
66831;DHT22;53739;44.224;22.528;2023-01-08T02:31:37;0.90;2201.60
66831;DHT22;53739;44.224;22.528;2023-01-08T02:34:04;0.90;2201.60
66831;DHT22;53739;44.224;22.528;2023-01-08T02:39:43;0.80;2201.60
66831;DHT22;53739;44.224;22.528;2023-01-08T02:44:55;0.70;2201.60
66831;DHT22;53739;44.224;22.528;2023-01-08T02:47:30;0.70;2201.60
66831;DHT22;53739;44.224;22.528;2023-01-08T02:50:14;0.80;2201.60
66831;DHT22;53739;44.224;22.528;2023-01-08T02:52:54;0.90;2201.60
66831;DHT22;53739;44.224;22.528;2023-01-08T02:55:22;0.90;2201.60
66831;DHT22;53739;44.224;22.528;2023-01-08T02:57:49;25.60;2201.60
66831;DHT22;53739;44.224;22.528;2023-01-08T03:00:15;25.60;2201.60
66831;DHT22;53739;44.224;22.528;2023-01-08T03:02:42;25.60;2201.60
66831;DHT22;53739;44.224;22.528;2023-01-08T03:05:28;25.60;2201.60
66831;DHT22;53739;44.224;22.528;2023-01-08T03:07:54;0.90;2201.60
66831;DHT22;53739;44.224;22.528;2023-01-08T03:10:23;25.60;2201.60
66831;DHT22;53739;44.224;22.528;2023-01-08T03:13:04;25.60;2201.60
66831;DHT22;53739;44.224;22.528;2023-01-08T03:15:37;25.60;2201.60
66831;DHT22;53739;44.224;22.528;2023-01-08T03:18:08;0.90;2201.60
66831;DHT22;53739;44.224;22.528;2023-01-08T03:20:37;25.60;2201.60
66831;DHT22;53739;44.224;22.528;2023-01-08T03:23:06;0.70;2201.60
66831;DHT22;53739;44.224;22.528;2023-01-08T03:25:34;0.50;2201.60
66831;DHT22;53739;44.224;22.528;2023-01-08T03:28:03;0.40;2201.60
66831;DHT22;53739;44.224;22.528;2023-01-08T03:30:30;0.40;2201.60
66831;DHT22;53739;44.224;22.528;2023-01-08T03:32:58;0.30;2201.60
66831;DHT22;53739;44.224;22.528;2023-01-08T03:35:26;0.30;2201.60
66831;DHT22;53739;44.224;22.528;2023-01-08T03:38:03;0.20;2201.60
66831;DHT22;53739;44.224;22.528;2023-01-08T03:40:35;0.10;2201.60
66831;DHT22;53739;44.224;22.528;2023-01-08T03:43:03;0.00;2201.60
66831;DHT22;53739;44.224;22.528;2023-01-08T03:45:30;0.10;2201.60
66831;DHT22;53739;44.224;22.528;2023-01-08T03:47:57;0.10;2201.60
66831;DHT22;53739;44.224;22.528;2023-01-08T03:50:26;0.00;2201.60
66831;DHT22;53739;44.224;22.528;2023-01-08T03:52:56;0.00;2201.60
66831;DHT22;53739;44.224;22.528;2023-01-08T03:55:24;0.00;2201.60
66831;DHT22;53739;44.224;22.528;2023-01-08T03:57:50;0.00;2201.60
66831;DHT22;53739;44.224;22.528;2023-01-08T04:00:16;0.00;2201.60
66831;DHT22;53739;44.224;22.528;2023-01-08T04:02:45;0.10;2201.60
66831;DHT22;53739;44.224;22.528;2023-01-08T04:05:14;0.10;2201.60
66831;DHT22;53739;44.224;22.528;2023-01-08T04:11:19;12.90;2201.60
66831;DHT22;53739;44.224;22.528;2023-01-08T05:15:44;0.20;2201.60
66831;DHT22;53739;44.224;22.528;2023-01-08T05:22:05;0.20;2201.60
66831;DHT22;53739;44.224;22.528;2023-01-08T05:25:00;0.20;2201.60
66831;DHT22;53739;44.224;22.528;2023-01-08T05:27:52;0.00;2201.60
66831;DHT22;53739;44.224;22.528;2023-01-08T05:30:33;0.10;2201.60
66831;DHT22;53739;44.224;22.528;2023-01-08T05:33:08;0.10;2201.60
66831;DHT22;53739;44.224;22.528;2023-01-08T05:35:45;0.10;2201.60
66831;DHT22;53739;44.224;22.528;2023-01-08T05:38:27;0.20;2201.60
66831;DHT22;53739;44.224;22.528;2023-01-08T05:45:13;0.20;2201.60
66831;DHT22;53739;44.224;22.528;2023-01-08T05:47:51;0.20;1638.40
66831;DHT22;53739;44.224;22.528;2023-01-08T05:50:20;0.20;691.20
66831;DHT22;53739;44.224;22.528;2023-01-08T05:53:04;0.20;6451.20
66831;DHT22;53739;44.224;22.528;2023-01-08T05:55:51;0.20;537.60
66831;DHT22;53739;44.224;22.528;2023-01-08T05:58:19;0.20;1126.40
66831;DHT22;53739;44.224;22.528;2023-01-08T06:00:47;0.20;1382.40
66831;DHT22;53739;44.224;22.528;2023-01-08T06:03:19;0.10;2201.60
66831;DHT22;53739;44.224;22.528;2023-01-08T06:20:07;13.40;2201.60
66831;DHT22;53739;44.224;22.528;2023-01-08T06:23:06;13.40;2201.60
66831;DHT22;53739;44.224;22.528;2023-01-08T06:25:58;13.40;2201.60
66831;DHT22;53739;44.224;22.528;2023-01-08T06:28:36;13.30;2201.60
66831;DHT22;53739;44.224;22.528;2023-01-08T06:31:05;13.30;2201.60
66831;DHT22;53739;44.224;22.528;2023-01-08T06:33:39;13.30;2201.60
66831;DHT22;53739;44.224;22.528;2023-01-08T06:36:05;13.40;2201.60
66831;DHT22;53739;44.224;22.528;2023-01-08T06:38:33;13.40;2201.60
66831;DHT22;53739;44.224;22.528;2023-01-08T06:41:09;13.40;2201.60
66831;DHT22;53739;44.224;22.528;2023-01-08T06:43:44;13.50;2201.60
66831;DHT22;53739;44.224;22.528;2023-01-08T06:46:51;13.50;2201.60
66831;DHT22;53739;44.224;22.528;2023-01-08T06:49:17;13.50;2201.60
66831;DHT22;53739;44.224;22.528;2023-01-08T06:52:09;13.70;2201.60
66831;DHT22;53739;44.224;22.528;2023-01-08T06:55:18;13.70;2201.60
66831;DHT22;53739;44.224;22.528;2023-01-08T06:58:04;13.50;2201.60
66831;DHT22;53739;44.224;22.528;2023-01-08T07:00:52;13.40;2124.80
66831;DHT22;53739;44.224;22.528;2023-01-08T07:03:57;13.20;2201.60
66831;DHT22;53739;44.224;22.528;2023-01-08T07:06:42;13.20;2201.60
66831;DHT22;53739;44.224;22.528;2023-01-08T07:12:40;13.00;2201.60
66831;DHT22;53739;44.224;22.528;2023-01-08T07:15:06;12.90;2201.60
66831;DHT22;53739;44.224;22.528;2023-01-08T07:17:32;0.10;2201.60
66831;DHT22;53739;44.224;22.528;2023-01-08T07:19:58;0.40;2201.60
66831;DHT22;53739;44.224;22.528;2023-01-08T07:22:27;0.40;2201.60
66831;DHT22;53739;44.224;22.528;2023-01-08T07:24:53;0.50;2201.60
66831;DHT22;53739;44.224;22.528;2023-01-08T07:27:19;0.70;2201.60
66831;DHT22;53739;44.224;22.528;2023-01-08T07:29:45;0.70;2201.60
66831;DHT22;53739;44.224;22.528;2023-01-08T07:32:10;0.80;1971.20
66831;DHT22;53739;44.224;22.528;2023-01-08T07:34:36;0.90;2201.60
66831;DHT22;53739;44.224;22.528;2023-01-08T07:37:14;25.70;2201.60
66831;DHT22;53739;44.224;22.528;2023-01-08T07:40:05;25.60;2201.60
66831;DHT22;53739;44.224;22.528;2023-01-08T07:42:47;25.60;2201.60
66831;DHT22;53739;44.224;22.528;2023-01-08T07:56:06;26.30;2201.60
66831;DHT22;53739;44.224;22.528;2023-01-08T07:58:38;26.30;2201.60
66831;DHT22;53739;44.224;22.528;2023-01-08T08:01:23;51.20;2227.20
66831;DHT22;53739;44.224;22.528;2023-01-08T08:10:48;51.70;2227.20
66831;DHT22;53739;44.224;22.528;2023-01-08T08:13:14;51.70;2227.20
66831;DHT22;53739;44.224;22.528;2023-01-08T09:04:47;103.30;128.00
66831;DHT22;53739;44.224;22.528;2023-01-08T09:07:18;128.30;6502.40
66831;DHT22;53739;44.224;22.528;2023-01-08T09:09:50;128.60;6502.40
66831;DHT22;53739;44.224;22.528;2023-01-08T09:12:16;128.90;6502.40
66831;DHT22;53739;44.224;22.528;2023-01-08T09:14:48;153.80;6502.40
66831;DHT22;53739;44.224;22.528;2023-01-08T09:17:16;154.10;6502.40
66831;DHT22;53739;44.224;22.528;2023-01-08T09:19:49;154.50;6528.00
66831;DHT22;53739;44.224;22.528;2023-01-08T09:22:15;179.40;6502.40
66831;DHT22;53739;44.224;22.528;2023-01-08T09:24:51;179.30;6502.40
66831;DHT22;53739;44.224;22.528;2023-01-08T09:27:19;179.40;6502.40
66831;DHT22;53739;44.224;22.528;2023-01-08T09:29:45;179.80;6502.40
66831;DHT22;53739;44.224;22.528;2023-01-08T09:32:16;180.10;6502.40
66831;DHT22;53739;44.224;22.528;2023-01-08T09:34:47;205.10;6502.40
66831;DHT22;53739;44.224;22.528;2023-01-08T09:37:13;205.20;6502.40
66831;DHT22;53739;44.224;22.528;2023-01-08T09:50:20;230.60;6502.40
66831;DHT22;53739;44.224;22.528;2023-01-08T09:53:02;230.60;6502.40
66831;DHT22;53739;44.224;22.528;2023-01-08T09:55:33;205.70;6502.40
66831;DHT22;53739;44.224;22.528;2023-01-08T10:00:59;205.70;6502.40
66831;DHT22;53739;44.224;22.528;2023-01-08T10:03:31;230.50;6502.40
66831;DHT22;53739;44.224;22.528;2023-01-08T10:06:57;230.60;128.00
66831;DHT22;53739;44.224;22.528;2023-01-08T10:09:34;230.90;409.60
66831;DHT22;53739;44.224;22.528;2023-01-08T10:12:02;231.00;6502.40
66831;DHT22;53739;44.224;22.528;2023-01-08T10:14:34;231.20;6502.40
66831;DHT22;53739;44.224;22.528;2023-01-08T10:17:24;256.00;6502.40
66831;DHT22;53739;44.224;22.528;2023-01-08T10:19:50;231.00;6502.40
66831;DHT22;53739;44.224;22.528;2023-01-08T10:22:19;256.00;6502.40
66831;DHT22;53739;44.224;22.528;2023-01-08T10:24:46;256.00;6502.40
66831;DHT22;53739;44.224;22.528;2023-01-08T10:27:19;256.20;6502.40
66831;DHT22;53739;44.224;22.528;2023-01-08T10:29:45;256.30;6502.40
66831;DHT22;53739;44.224;22.528;2023-01-08T10:32:50;256.70;6502.40
66831;DHT22;53739;44.224;22.528;2023-01-08T10:35:39;281.60;6528.00
66831;DHT22;53739;44.224;22.528;2023-01-08T10:40:56;281.70;6528.00
66831;DHT22;53739;44.224;22.528;2023-01-08T10:44:18;281.70;6528.00
66831;DHT22;53739;44.224;22.528;2023-01-08T10:50:18;281.90;6528.00
66831;DHT22;53739;44.224;22.528;2023-01-08T11:13:15;282.50;6528.00
66831;DHT22;53739;44.224;22.528;2023-01-08T11:16:03;307.20;128.00
66831;DHT22;53739;44.224;22.528;2023-01-08T11:18:35;307.30;128.00
66831;DHT22;53739;44.224;22.528;2023-01-08T11:21:21;307.30;128.00
66831;DHT22;53739;44.224;22.528;2023-01-08T11:27:00;307.40;128.00
66831;DHT22;53739;44.224;22.528;2023-01-08T11:29:48;282.50;6528.00
66831;DHT22;53739;44.224;22.528;2023-01-08T11:45:06;307.60;128.00
66831;DHT22;53739;44.224;22.528;2023-01-08T11:54:41;307.40;128.00
66831;DHT22;53739;44.224;22.528;2023-01-08T11:57:34;307.30;128.00
66831;DHT22;53739;44.224;22.528;2023-01-08T12:02:53;307.40;128.00
66831;DHT22;53739;44.224;22.528;2023-01-08T12:05:34;307.40;128.00
66831;DHT22;53739;44.224;22.528;2023-01-08T12:08:05;307.60;128.00
66831;DHT22;53739;44.224;22.528;2023-01-08T12:10:59;307.70;128.00
66831;DHT22;53739;44.224;22.528;2023-01-08T12:24:18;307.70;128.00
66831;DHT22;53739;44.224;22.528;2023-01-08T12:27:15;307.50;128.00
66831;DHT22;53739;44.224;22.528;2023-01-08T12:30:15;307.60;128.00
66831;DHT22;53739;44.224;22.528;2023-01-08T12:32:53;307.60;128.00
66831;DHT22;53739;44.224;22.528;2023-01-08T12:35:32;307.80;128.00
66831;DHT22;53739;44.224;22.528;2023-01-08T12:38:11;307.30;128.00
66831;DHT22;53739;44.224;22.528;2023-01-08T12:41:00;307.60;128.00
66831;DHT22;53739;44.224;22.528;2023-01-08T12:43:31;307.70;128.00
66831;DHT22;53739;44.224;22.528;2023-01-08T12:45:59;307.60;128.00
66831;DHT22;53739;44.224;22.528;2023-01-08T12:48:35;282.40;6528.00
66831;DHT22;53739;44.224;22.528;2023-01-08T13:00:08;256.90;6502.40
66831;DHT22;53739;44.224;22.528;2023-01-08T13:03:00;256.70;6502.40
66831;DHT22;53739;44.224;22.528;2023-01-08T13:07:55;256.40;6502.40
66831;DHT22;53739;44.224;22.528;2023-01-08T13:12:57;256.40;6502.40
66831;DHT22;53739;44.224;22.528;2023-01-08T13:15:27;256.20;128.00
66831;DHT22;53739;44.224;22.528;2023-01-08T13:17:56;256.20;153.60
66831;DHT22;53739;44.224;22.528;2023-01-08T13:20:28;256.10;563.20
66831;DHT22;53739;44.224;22.528;2023-01-08T13:22:58;256.10;6502.40
66831;DHT22;53739;44.224;22.528;2023-01-08T13:27:50;256.10;6502.40
66831;DHT22;53739;44.224;22.528;2023-01-08T13:30:48;256.00;6502.40
66831;DHT22;53739;44.224;22.528;2023-01-08T13:36:18;231.00;6502.40
66831;DHT22;53739;44.224;22.528;2023-01-08T13:39:19;231.00;6502.40
66831;DHT22;53739;44.224;22.528;2023-01-08T13:44:40;230.90;6502.40
66831;DHT22;53739;44.224;22.528;2023-01-08T13:47:30;230.90;6502.40
66831;DHT22;53739;44.224;22.528;2023-01-08T13:49:59;230.90;6502.40
66831;DHT22;53739;44.224;22.528;2023-01-08T13:54:56;230.80;6502.40
66831;DHT22;53739;44.224;22.528;2023-01-08T13:57:22;230.70;6502.40
66831;DHT22;53739;44.224;22.528;2023-01-08T13:59:50;230.60;6502.40
66831;DHT22;53739;44.224;22.528;2023-01-08T14:02:29;230.60;6502.40
66831;DHT22;53739;44.224;22.528;2023-01-08T14:04:57;230.60;6502.40
66831;DHT22;53739;44.224;22.528;2023-01-08T14:07:23;230.60;6502.40
66831;DHT22;53739;44.224;22.528;2023-01-08T14:09:50;230.60;6502.40
66831;DHT22;53739;44.224;22.528;2023-01-08T14:12:21;230.50;409.60
66831;DHT22;53739;44.224;22.528;2023-01-08T14:14:56;230.50;6502.40
66831;DHT22;53739;44.224;22.528;2023-01-08T14:17:29;230.50;6502.40
66831;DHT22;53739;44.224;22.528;2023-01-08T14:19:56;230.40;6502.40
66831;DHT22;53739;44.224;22.528;2023-01-08T14:22:28;230.40;6502.40
66831;DHT22;53739;44.224;22.528;2023-01-08T14:24:59;230.40;6502.40
66831;DHT22;53739;44.224;22.528;2023-01-08T14:27:28;230.40;6502.40
66831;DHT22;53739;44.224;22.528;2023-01-08T14:29:54;230.40;6502.40
66831;DHT22;53739;44.224;22.528;2023-01-08T14:32:23;230.40;6502.40
66831;DHT22;53739;44.224;22.528;2023-01-08T14:34:52;205.70;6502.40
66831;DHT22;53739;44.224;22.528;2023-01-08T14:37:19;205.70;6502.40
66831;DHT22;53739;44.224;22.528;2023-01-08T14:39:46;205.70;435.20
66831;DHT22;53739;44.224;22.528;2023-01-08T14:42:22;205.60;6502.40
66831;DHT22;53739;44.224;22.528;2023-01-08T14:45:26;205.50;6502.40
66831;DHT22;53739;44.224;22.528;2023-01-08T14:47:59;205.40;6502.40
66831;DHT22;53739;44.224;22.528;2023-01-08T14:50:35;205.20;6502.40
66831;DHT22;53739;44.224;22.528;2023-01-08T14:53:23;205.20;6502.40
66831;DHT22;53739;44.224;22.528;2023-01-08T14:55:51;205.20;6502.40
66831;DHT22;53739;44.224;22.528;2023-01-08T14:58:22;205.10;6502.40
66831;DHT22;53739;44.224;22.528;2023-01-08T15:01:00;205.00;6502.40
66831;DHT22;53739;44.224;22.528;2023-01-08T15:03:32;205.00;6502.40
66831;DHT22;53739;44.224;22.528;2023-01-08T15:05:58;204.90;6502.40
66831;DHT22;53739;44.224;22.528;2023-01-08T15:08:31;204.80;6502.40
66831;DHT22;53739;44.224;22.528;2023-01-08T15:11:05;180.10;6502.40
66831;DHT22;53739;44.224;22.528;2023-01-08T15:13:35;180.00;6502.40
66831;DHT22;53739;44.224;22.528;2023-01-08T15:16:15;180.00;6502.40
66831;DHT22;53739;44.224;22.528;2023-01-08T15:18:47;179.90;6502.40
66831;DHT22;53739;44.224;22.528;2023-01-08T15:21:17;179.80;6502.40
66831;DHT22;53739;44.224;22.528;2023-01-08T15:23:50;179.60;6502.40
66831;DHT22;53739;44.224;22.528;2023-01-08T15:26:17;179.60;6502.40
66831;DHT22;53739;44.224;22.528;2023-01-08T15:31:44;179.50;6502.40
66831;DHT22;53739;44.224;22.528;2023-01-08T15:34:10;179.50;6502.40
66831;DHT22;53739;44.224;22.528;2023-01-08T15:36:36;179.30;6502.40
66831;DHT22;53739;44.224;22.528;2023-01-08T15:39:03;179.20;6502.40
66831;DHT22;53739;44.224;22.528;2023-01-08T15:41:33;179.20;6502.40
66831;DHT22;53739;44.224;22.528;2023-01-08T15:44:18;154.50;6502.40
66831;DHT22;53739;44.224;22.528;2023-01-08T15:46:43;154.40;6502.40
66831;DHT22;53739;44.224;22.528;2023-01-08T15:49:09;154.40;6502.40
66831;DHT22;53739;44.224;22.528;2023-01-08T15:51:44;154.30;6502.40
66831;DHT22;53739;44.224;22.528;2023-01-08T15:54:14;154.20;6502.40
66831;DHT22;53739;44.224;22.528;2023-01-08T15:56:41;154.20;6502.40
66831;DHT22;53739;44.224;22.528;2023-01-08T15:59:07;154.10;6502.40
66831;DHT22;53739;44.224;22.528;2023-01-08T16:01:33;154.00;6502.40
66831;DHT22;53739;44.224;22.528;2023-01-08T16:03:59;153.90;6502.40
66831;DHT22;53739;44.224;22.528;2023-01-08T16:06:25;153.90;6502.40
66831;DHT22;53739;44.224;22.528;2023-01-08T16:08:51;153.80;6502.40
66831;DHT22;53739;44.224;22.528;2023-01-08T16:11:17;153.60;6502.40
66831;DHT22;53739;44.224;22.528;2023-01-08T16:13:43;153.60;6502.40
66831;DHT22;53739;44.224;22.528;2023-01-08T16:16:11;128.90;6502.40
66831;DHT22;53739;44.224;22.528;2023-01-08T16:18:37;128.90;6502.40
66831;DHT22;53739;44.224;22.528;2023-01-08T16:21:03;128.80;6502.40
66831;DHT22;53739;44.224;22.528;2023-01-08T16:23:31;128.70;6528.00
66831;DHT22;53739;44.224;22.528;2023-01-08T16:25:57;128.70;6502.40
66831;DHT22;53739;44.224;22.528;2023-01-08T16:28:23;128.60;128.00
66831;DHT22;53739;44.224;22.528;2023-01-08T16:30:49;128.60;6502.40
66831;DHT22;53739;44.224;22.528;2023-01-08T16:33:15;128.50;6502.40
66831;DHT22;53739;44.224;22.528;2023-01-08T16:35:41;128.40;6502.40
66831;DHT22;53739;44.224;22.528;2023-01-08T16:38:07;128.40;6502.40
66831;DHT22;53739;44.224;22.528;2023-01-08T16:40:32;128.30;6502.40
66831;DHT22;53739;44.224;22.528;2023-01-08T16:43:01;128.20;6502.40
66831;DHT22;53739;44.224;22.528;2023-01-08T16:45:27;128.20;6502.40
66831;DHT22;53739;44.224;22.528;2023-01-08T16:47:53;103.30;6476.80
66831;DHT22;53739;44.224;22.528;2023-01-08T16:50:18;103.30;6476.80
66831;DHT22;53739;44.224;22.528;2023-01-08T16:52:44;103.30;6476.80
66831;DHT22;53739;44.224;22.528;2023-01-08T16:55:10;103.20;6476.80
66831;DHT22;53739;44.224;22.528;2023-01-08T16:57:36;103.30;6476.80
66831;DHT22;53739;44.224;22.528;2023-01-08T17:00:03;103.20;6476.80
66831;DHT22;53739;44.224;22.528;2023-01-08T17:02:29;103.10;6476.80
66831;DHT22;53739;44.224;22.528;2023-01-08T17:04:55;103.00;6476.80
66831;DHT22;53739;44.224;22.528;2023-01-08T17:07:20;103.00;6476.80
66831;DHT22;53739;44.224;22.528;2023-01-08T17:09:46;103.00;6476.80
66831;DHT22;53739;44.224;22.528;2023-01-08T17:12:12;103.00;6476.80
66831;DHT22;53739;44.224;22.528;2023-01-08T17:14:47;102.90;6476.80
66831;DHT22;53739;44.224;22.528;2023-01-08T17:17:14;102.90;6476.80
66831;DHT22;53739;44.224;22.528;2023-01-08T17:19:39;102.80;6476.80
66831;DHT22;53739;44.224;22.528;2023-01-08T17:22:05;102.80;6476.80
66831;DHT22;53739;44.224;22.528;2023-01-08T17:24:31;102.80;6476.80
66831;DHT22;53739;44.224;22.528;2023-01-08T17:26:57;102.80;6476.80
66831;DHT22;53739;44.224;22.528;2023-01-08T17:29:23;102.70;6476.80
66831;DHT22;53739;44.224;22.528;2023-01-08T17:31:48;102.70;6476.80
66831;DHT22;53739;44.224;22.528;2023-01-08T17:34:17;102.70;6476.80
66831;DHT22;53739;44.224;22.528;2023-01-08T17:36:43;102.60;6476.80
66831;DHT22;53739;44.224;22.528;2023-01-08T17:39:10;102.60;6476.80
66831;DHT22;53739;44.224;22.528;2023-01-08T17:41:36;102.60;6476.80
66831;DHT22;53739;44.224;22.528;2023-01-08T17:44:21;102.60;6476.80
66831;DHT22;53739;44.224;22.528;2023-01-08T17:46:46;102.60;128.00
66831;DHT22;53739;44.224;22.528;2023-01-08T17:49:14;102.60;6476.80
66831;DHT22;53739;44.224;22.528;2023-01-08T17:51:41;102.50;6476.80
66831;DHT22;53739;44.224;22.528;2023-01-08T17:54:15;102.50;6476.80
66831;DHT22;53739;44.224;22.528;2023-01-08T17:56:42;102.50;768.00
66831;DHT22;53739;44.224;22.528;2023-01-08T17:59:11;102.50;6476.80
66831;DHT22;53739;44.224;22.528;2023-01-08T18:01:37;102.50;6476.80
66831;DHT22;53739;44.224;22.528;2023-01-08T18:04:03;102.60;6476.80
66831;DHT22;53739;44.224;22.528;2023-01-08T18:06:29;102.50;6476.80
66831;DHT22;53739;44.224;22.528;2023-01-08T18:08:55;102.50;6476.80
66831;DHT22;53739;44.224;22.528;2023-01-08T18:11:21;102.50;6476.80
66831;DHT22;53739;44.224;22.528;2023-01-08T18:13:47;102.40;179.20
66831;DHT22;53739;44.224;22.528;2023-01-08T18:16:13;102.40;128.00
66831;DHT22;53739;44.224;22.528;2023-01-08T18:18:39;102.40;6476.80
66831;DHT22;53739;44.224;22.528;2023-01-08T18:21:05;77.70;6476.80
66831;DHT22;53739;44.224;22.528;2023-01-08T18:23:31;77.60;6476.80
66831;DHT22;53739;44.224;22.528;2023-01-08T18:26:05;77.60;6476.80
66831;DHT22;53739;44.224;22.528;2023-01-08T18:28:31;77.60;6476.80
66831;DHT22;53739;44.224;22.528;2023-01-08T18:31:00;77.60;6476.80
66831;DHT22;53739;44.224;22.528;2023-01-08T18:33:29;77.50;6476.80
66831;DHT22;53739;44.224;22.528;2023-01-08T18:36:00;77.50;460.80
66831;DHT22;53739;44.224;22.528;2023-01-08T18:38:28;77.40;6476.80
66831;DHT22;53739;44.224;22.528;2023-01-08T18:40:56;77.40;6476.80
66831;DHT22;53739;44.224;22.528;2023-01-08T18:43:22;77.40;6476.80
66831;DHT22;53739;44.224;22.528;2023-01-08T18:45:48;77.40;6476.80
66831;DHT22;53739;44.224;22.528;2023-01-08T18:48:14;77.30;6476.80
66831;DHT22;53739;44.224;22.528;2023-01-08T18:50:42;77.20;6476.80
66831;DHT22;53739;44.224;22.528;2023-01-08T18:53:09;77.20;6476.80
66831;DHT22;53739;44.224;22.528;2023-01-08T18:55:37;77.10;6476.80
66831;DHT22;53739;44.224;22.528;2023-01-08T18:58:03;77.00;665.60
66831;DHT22;53739;44.224;22.528;2023-01-08T19:00:29;76.90;358.40
66831;DHT22;53739;44.224;22.528;2023-01-08T19:02:55;77.00;6476.80
66831;DHT22;53739;44.224;22.528;2023-01-08T19:05:22;77.00;6476.80
66831;DHT22;53739;44.224;22.528;2023-01-08T19:07:57;77.00;6476.80
66831;DHT22;53739;44.224;22.528;2023-01-08T19:10:28;77.00;6476.80
66831;DHT22;53739;44.224;22.528;2023-01-08T19:13:18;76.90;6476.80
66831;DHT22;53739;44.224;22.528;2023-01-08T19:18:57;76.90;6476.80
66831;DHT22;53739;44.224;22.528;2023-01-08T19:21:26;76.90;6476.80
66831;DHT22;53739;44.224;22.528;2023-01-08T19:24:03;76.90;6476.80
66831;DHT22;53739;44.224;22.528;2023-01-08T19:26:30;76.90;6476.80
66831;DHT22;53739;44.224;22.528;2023-01-08T19:29:04;76.90;6476.80
66831;DHT22;53739;44.224;22.528;2023-01-08T19:31:45;77.00;6476.80
66831;DHT22;53739;44.224;22.528;2023-01-08T19:34:11;77.00;6476.80
66831;DHT22;53739;44.224;22.528;2023-01-08T19:36:36;77.00;6476.80
66831;DHT22;53739;44.224;22.528;2023-01-08T19:39:02;76.90;204.80
66831;DHT22;53739;44.224;22.528;2023-01-08T19:41:30;76.90;6476.80
66831;DHT22;53739;44.224;22.528;2023-01-08T19:44:15;76.90;6476.80
66831;DHT22;53739;44.224;22.528;2023-01-08T19:47:02;76.90;6476.80
66831;DHT22;53739;44.224;22.528;2023-01-08T19:49:38;76.80;6476.80
66831;DHT22;53739;44.224;22.528;2023-01-08T19:52:16;52.10;6476.80
66831;DHT22;53739;44.224;22.528;2023-01-08T19:54:42;51.90;2201.60